Time;durP1;ratioP1;P1;durP2;ratioP2;P2;SDS_P1;SDS_P2;PMS_P1;PMS_P2;Temp;Humidity;BMP_temperature;BMP_pressure;BME280_temperature;BME280_humidity;BME280_pressure;Samples;Min_cycle;Max_cycle;Signal;HPM_P1;HPM_P2
2021/08/13 00:13:38;;;;;;;47.67;44.17;;;16.30;96.90;;;;;;6182828;23;20405;-87
2021/08/13 00:16:54;;;;;;;45.37;42.13;;;16.30;96.70;;;;;;6196839;23;20405;-86
2021/08/13 00:29:34;;;;;;;26.10;23.77;;;16.60;94.80;;;;;;6005953;23;20412;-88
2021/08/13 00:35:57;;;;;;;;;;;;;;;;;;;;;
2021/08/13 00:54:21;;;;;;;;;;;;;;;;;;;;;
2021/08/13 01:00:40;;;;;;;;;;;;;;;;;;;;;
2021/08/13 01:04:12;;;;;;;40.67;37.57;;;16.40;95.40;;;;;;6104865;23;20406;-87
2021/08/13 01:07:28;;;;;;;42.67;39.57;;;16.30;95.50;;;;;;5951671;24;20412;-87
2021/08/13 01:14:41;;;;;;;;;;;;;;;;;;;;;
2021/08/13 01:18:12;;;;;;;;;;;;;;;;;;;;;
2021/08/13 01:31:22;;;;;;;46.70;43.70;;;16.10;96.20;;;;;;5983728;23;20429;-87
2021/08/13 01:41:15;;;;;;;57.53;53.77;;;16.10;97.60;;;;;;6180882;23;20512;-89
2021/08/13 01:43:44;;;;;;;51.50;47.80;;;16.20;97.70;;;;;;5927776;23;20541;-84
2021/08/13 01:47:02;;;;;;;44.33;41.40;;;16.30;96.60;;;;;;6123916;23;20416;-88
2021/08/13 01:53:36;;;;;;;41.60;37.93;;;16.40;95.50;;;;;;6174033;23;20417;-88
2021/08/13 02:47:58;;;;;;;;;;;;;;;;;;;;;
2021/08/13 04:05:02;;;;;;;;;;;;;;;;;;;;;
2021/08/13 06:17:08;;;;;;;16.40;10.15;;;21.30;60.30;;;;;;6199883;22;1320879;-88
2021/08/13 06:19:49;;;;;;;15.20;10.17;;;21.30;59.90;;;;;;6247468;23;20163;-86
2021/08/13 06:22:17;;;;;;;12.63;9.67;;;21.00;60.20;;;;;;6246838;23;20478;-89
2021/08/13 06:24:44;;;;;;;13.87;9.77;;;21.10;61.30;;;;;;6249738;23;20402;-93
2021/08/13 06:27:11;;;;;;;16.83;10.70;;;21.10;60.90;;;;;;6247694;23;20802;-91
2021/08/13 06:29:39;;;;;;;19.00;12.17;;;21.20;60.60;;;;;;6258812;23;20403;-91
2021/08/13 06:32:19;;;;;;;19.50;12.03;;;21.30;60.90;;;;;;6260248;23;20407;-92
2021/08/13 06:34:52;;;;;;;15.70;9.60;;;21.50;59.40;;;;;;6257134;23;20409;-87
2021/08/13 06:37:19;;;;;;;14.60;10.33;;;21.70;58.50;;;;;;6255953;23;20403;-92
2021/08/13 06:43:08;;;;;;;24.47;15.03;;;21.50;57.90;;;;;;6220109;23;20407;-89
2021/08/13 06:53:43;;;;;;;22.60;14.90;;;21.20;56.10;;;;;;6236589;22;20442;-92
2021/08/13 08:40:50;;;;;;;;;;;;;;;;;;;;;
2021/08/13 08:55:46;;;;;;;19.93;14.00;;;24.30;35.60;;;;;;6057195;23;20427;-83
2021/08/13 08:58:12;;;;;;;25.73;14.60;;;24.90;34.20;;;;;;6091836;23;20450;-86
2021/08/13 09:00:41;;;;;;;23.27;14.67;;;24.90;34.50;;;;;;6168914;23;20413;-83
2021/08/13 09:03:16;;;;;;;22.83;14.00;;;25.10;31.60;;;;;;6195147;23;20412;-86
2021/08/13 09:05:44;;;;;;;17.60;11.73;;;25.50;31.60;;;;;;6184411;23;20401;-85
2021/08/13 09:08:11;;;;;;;20.83;12.73;;;25.60;30.00;;;;;;6183435;23;20415;-88
2021/08/13 09:10:38;;;;;;;20.70;13.03;;;26.00;27.20;;;;;;6184809;23;20444;-86
2021/08/13 09:13:07;;;;;;;18.03;10.40;;;26.10;26.90;;;;;;6199056;23;20406;-87
2021/08/13 09:15:36;;;;;;;14.60;9.97;;;26.20;24.00;;;;;;6181844;23;20513;-86
2021/08/13 09:18:19;;;;;;;15.97;10.23;;;26.20;23.40;;;;;;6195056;23;20432;-85
2021/08/13 09:20:51;;;;;;;16.80;9.87;;;26.10;25.60;;;;;;6185552;23;20404;-85
2021/08/13 09:23:35;;;;;;;12.23;7.70;;;25.50;24.70;;;;;;6194046;23;20750;-86
2021/08/13 09:26:04;;;;;;;9.47;6.43;;;24.50;28.80;;;;;;6185040;23;20432;-85
2021/08/13 09:28:45;;;;;;;17.17;7.70;;;24.70;26.10;;;;;;6185356;23;20401;-86
2021/08/13 09:31:14;;;;;;;16.67;8.73;;;24.90;26.20;;;;;;6185418;23;20447;-84
2021/08/13 09:33:41;;;;;;;12.83;7.40;;;24.90;26.30;;;;;;6185539;23;20401;-84
2021/08/13 09:36:49;;;;;;;10.93;6.10;;;25.50;25.30;;;;;;6187142;23;20412;-88
2021/08/13 09:40:24;;;;;;;11.43;7.10;;;26.00;23.50;;;;;;6179174;23;20527;-87
2021/08/13 09:43:29;;;;;;;10.77;5.57;;;26.50;22.30;;;;;;6196829;23;20412;-86
2021/08/13 09:46:20;;;;;;;9.13;5.60;;;26.70;21.50;;;;;;6186948;23;20451;-84
2021/08/13 09:48:57;;;;;;;10.80;5.67;;;27.10;20.00;;;;;;6196951;23;20409;-86
2021/08/13 09:51:36;;;;;;;8.77;5.73;;;27.20;17.10;;;;;;6196985;23;20973;-85
2021/08/13 09:54:08;;;;;;;9.27;5.60;;;27.20;17.00;;;;;;6196696;23;20408;-87
2021/08/13 09:56:43;;;;;;;10.37;5.77;;;27.30;17.20;;;;;;6186902;23;20397;-87
2021/08/13 09:59:16;;;;;;;8.20;5.40;;;27.20;17.00;;;;;;6186926;23;20486;-89
2021/08/13 10:01:47;;;;;;;9.40;4.10;;;27.30;13.60;;;;;;6186974;23;20398;-83
2021/08/13 10:04:17;;;;;;;12.87;5.27;;;27.10;13.50;;;;;;6186859;23;20405;-85
2021/08/13 10:06:46;;;;;;;8.90;5.60;;;27.30;13.70;;;;;;6185609;23;20702;-84
2021/08/13 10:09:26;;;;;;;7.90;5.00;;;27.50;15.40;;;;;;6196769;23;20475;-85
2021/08/13 10:11:58;;;;;;;7.17;4.03;;;27.60;11.80;;;;;;6196611;23;20411;-84
2021/08/13 10:14:30;;;;;;;8.70;4.20;;;27.80;12.30;;;;;;6196436;23;20379;-84
2021/08/13 10:17:26;;;;;;;10.00;4.80;;;27.90;11.30;;;;;;6196280;23;20413;-83
2021/08/13 10:19:55;;;;;;;9.80;3.83;;;27.90;9.70;;;;;;6196640;23;20471;-85
2021/08/13 10:22:31;;;;;;;8.57;4.20;;;27.50;13.00;;;;;;6195338;23;20412;-83
2021/08/13 10:24:59;;;;;;;6.60;3.90;;;28.00;12.20;;;;;;6186320;23;20436;-86
2021/08/13 10:27:27;;;;;;;6.77;3.70;;;28.40;10.00;;;;;;6186627;23;20456;-85
2021/08/13 10:29:59;;;;;;;10.03;3.87;;;27.80;6.80;;;;;;6186803;23;20405;-83
2021/08/13 10:32:27;;;;;;;5.00;2.70;;;27.70;8.30;;;;;;6196504;23;20761;-85
2021/08/13 10:35:03;;;;;;;8.10;3.50;;;27.70;9.60;;;;;;6195993;23;20414;-84
2021/08/13 10:40:10;;;;;;;5.90;2.80;;;28.40;10.00;;;;;;6274390;22;20442;-85
2021/08/13 10:42:41;;;;;;;14.63;3.50;;;28.50;6.20;;;;;;6287724;22;20917;-84
2021/08/13 10:45:35;;;;;;;5.23;2.70;;;28.30;7.30;;;;;;6287357;22;20503;-83
2021/08/13 10:48:36;;;;;;;5.47;2.80;;;28.10;6.10;;;;;;6277676;22;20402;-83
2021/08/13 10:51:03;;;;;;;9.17;3.23;;;28.20;7.40;;;;;;6277633;22;20411;-85
2021/08/13 10:53:38;;;;;;;6.00;3.03;;;28.30;9.20;;;;;;6286888;22;20448;-80
2021/08/13 10:56:08;;;;;;;8.20;4.00;;;28.60;7.50;;;;;;6287562;22;20443;-79
2021/08/13 10:58:48;;;;;;;7.13;2.83;;;27.40;9.40;;;;;;6272940;22;20430;-79
2021/08/13 11:01:16;;;;;;;5.37;2.70;;;27.60;11.50;;;;;;6275706;22;20789;-78
2021/08/13 11:04:10;;;;;;;5.07;2.60;;;27.90;8.30;;;;;;6275499;22;20900;-79
2021/08/13 11:06:47;;;;;;;4.77;2.47;;;28.80;11.60;;;;;;6277160;22;20398;-77
2021/08/13 11:09:30;;;;;;;4.53;1.90;;;29.10;6.20;;;;;;6277840;22;20459;-78
2021/08/13 11:12:10;;;;;;;8.33;2.23;;;28.60;3.10;;;;;;6277494;22;20715;-76
2021/08/13 11:14:48;;;;;;;6.13;2.13;;;28.00;6.80;;;;;;6277518;22;20398;-77
2021/08/13 11:17:34;;;;;;;7.03;1.70;;;27.60;8.20;;;;;;6277170;22;20940;-80
2021/08/13 11:20:05;;;;;;;5.70;2.07;;;27.20;8.00;;;;;;6277025;22;20398;-78
2021/08/13 11:22:35;;;;;;;6.47;1.57;;;27.60;7.70;;;;;;6275816;22;20394;-79
2021/08/13 11:25:03;;;;;;;4.97;1.70;;;28.40;7.80;;;;;;6277470;22;20373;-78
2021/08/13 11:27:30;;;;;;;7.93;2.23;;;29.20;3.90;;;;;;6277387;22;20402;-80
2021/08/13 11:29:57;;;;;;;5.00;2.10;;;29.20;3.70;;;;;;6277341;22;20420;-79
2021/08/13 11:32:29;;;;;;;8.97;2.60;;;28.50;5.80;;;;;;6277464;22;20402;-81
2021/08/13 11:34:58;;;;;;;9.60;2.40;;;29.30;2.60;;;;;;6276833;22;20870;-78
2021/08/13 11:37:52;;;;;;;5.50;2.40;;;29.90;2.90;;;;;;6275503;22;20911;-78
2021/08/13 11:40:43;;;;;;;5.17;2.53;;;30.10;1.00;;;;;;6277345;22;20373;-79
2021/08/13 11:43:12;;;;;;;5.53;2.50;;;29.70;2.80;;;;;;6239374;22;20389;-79
2021/08/13 11:45:40;;;;;;;6.70;3.17;;;27.80;7.90;;;;;;6277258;22;20499;-77
2021/08/13 11:48:08;;;;;;;6.00;2.57;;;26.80;11.40;;;;;;6277197;22;20407;-77
2021/08/13 11:50:35;;;;;;;6.67;2.73;;;26.70;14.00;;;;;;6277214;22;20409;-77
2021/08/13 11:53:04;;;;;;;7.50;2.53;;;27.60;12.80;;;;;;6275531;22;20399;-79
2021/08/13 11:55:33;;;;;;;5.13;2.37;;;28.00;6.30;;;;;;6277118;22;20384;-78
2021/08/13 11:58:02;;;;;;;5.17;2.47;;;28.10;5.30;;;;;;6276672;22;20373;-76
2021/08/13 12:00:30;;;;;;;5.17;2.07;;;28.10;5.80;;;;;;6277066;22;20786;-79
2021/08/13 12:02:58;;;;;;;4.60;2.40;;;28.80;4.40;;;;;;6277195;22;20850;-80
2021/08/13 12:05:29;;;;;;;7.97;2.80;;;28.90;2.40;;;;;;6277035;22;20729;-79
2021/08/13 12:08:01;;;;;;;5.57;2.43;;;28.40;2.70;;;;;;6275677;22;20394;-79
2021/08/13 12:10:30;;;;;;;6.50;2.43;;;27.90;5.50;;;;;;6276931;22;20398;-77
2021/08/13 12:12:57;;;;;;;5.37;2.23;;;28.40;7.00;;;;;;6276670;22;20856;-79
2021/08/13 12:15:31;;;;;;;7.70;1.80;;;29.00;5.70;;;;;;6276910;22;20395;-78
2021/08/13 12:17:59;;;;;;;5.27;1.80;;;28.80;5.60;;;;;;6276491;22;20903;-77
2021/08/13 12:20:27;;;;;;;6.17;1.80;;;28.30;4.70;;;;;;6277162;22;20398;-79
2021/08/13 12:23:02;;;;;;;8.87;2.63;;;28.50;6.00;;;;;;6275391;22;20739;-79
2021/08/13 12:25:37;;;;;;;5.87;1.73;;;28.80;3.90;;;;;;6277073;22;20724;-80
2021/08/13 12:28:05;;;;;;;6.10;2.33;;;28.10;5.50;;;;;;6276980;22;20398;-80
2021/08/13 12:30:33;;;;;;;4.77;1.80;;;28.80;6.10;;;;;;6276632;22;20394;-76
2021/08/13 12:33:00;;;;;;;5.27;2.73;;;29.00;4.20;;;;;;6276893;22;20400;-81
2021/08/13 12:35:37;;;;;;;5.10;2.30;;;29.20;4.90;;;;;;6276510;22;20394;-81
2021/08/13 12:38:04;;;;;;;4.80;1.90;;;29.10;4.80;;;;;;6274606;22;20444;-80
2021/08/13 12:40:39;;;;;;;4.03;1.53;;;29.30;2.20;;;;;;6276869;22;20647;-79
2021/08/13 12:43:09;;;;;;;5.53;2.00;;;30.00;1.20;;;;;;6276870;22;20457;-79
2021/08/13 12:45:36;;;;;;;4.80;2.07;;;30.40;1.00;;;;;;6276815;22;20444;-79
2021/08/13 12:48:04;;;;;;;5.60;2.07;;;31.10;1.00;;;;;;6276753;22;20398;-78
2021/08/13 12:50:31;;;;;;;5.63;1.70;;;31.10;1.00;;;;;;6276945;22;20405;-80
2021/08/13 12:53:05;;;;;;;4.70;2.00;;;31.00;1.00;;;;;;6275338;22;20404;-79
2021/08/13 12:55:44;;;;;;;7.20;2.40;;;31.70;1.00;;;;;;6276807;22;20404;-79
2021/08/13 12:58:28;;;;;;;7.47;2.37;;;31.20;1.00;;;;;;6276633;22;20398;-78
2021/08/13 13:00:55;;;;;;;5.27;2.40;;;30.50;1.00;;;;;;6276918;22;20405;-78
2021/08/13 13:03:22;;;;;;;7.77;4.13;;;30.20;1.00;;;;;;6276648;22;20722;-77
2021/08/13 13:06:08;;;;;;;7.10;2.43;;;29.40;1.00;;;;;;6286646;22;20889;-80
2021/08/13 13:08:46;;;;;;;5.10;2.33;;;29.90;1.00;;;;;;6275358;22;20404;-79
2021/08/13 13:11:23;;;;;;;4.97;2.13;;;30.00;1.30;;;;;;6278830;22;20400;-82
2021/08/13 13:13:53;;;;;;;5.23;2.40;;;30.20;1.00;;;;;;6278192;22;20702;-78
2021/08/13 13:16:20;;;;;;;5.30;2.40;;;30.70;1.00;;;;;;6278576;22;20397;-79
2021/08/13 13:18:47;;;;;;;5.30;2.20;;;30.10;1.00;;;;;;6278589;22;20397;-80
2021/08/13 13:21:24;;;;;;;5.00;2.23;;;29.90;1.00;;;;;;6278307;22;20729;-78
2021/08/13 13:23:51;;;;;;;4.77;1.97;;;29.80;2.30;;;;;;6276995;22;20394;-78
2021/08/13 13:30:09;;;;;;;5.93;2.53;;;29.70;1.00;;;;;;6137968;23;20493;-82
2021/08/13 13:32:37;;;;;;;4.90;2.33;;;29.30;1.00;;;;;;6081469;22;20431;-79
2021/08/13 13:35:08;;;;;;;5.53;2.80;;;28.60;2.20;;;;;;6278374;22;20455;-78
2021/08/13 13:37:35;;;;;;;5.90;2.70;;;29.00;3.30;;;;;;6276045;22;20406;-78
2021/08/13 13:40:02;;;;;;;6.20;2.30;;;29.40;2.70;;;;;;6277746;22;20453;-79
2021/08/13 13:42:29;;;;;;;4.83;2.40;;;30.40;1.00;;;;;;6278370;22;20406;-78
2021/08/13 13:45:07;;;;;;;6.97;2.67;;;30.50;1.00;;;;;;6278357;22;20458;-78
2021/08/13 13:47:34;;;;;;;4.20;2.00;;;31.10;1.00;;;;;;6277992;22;20398;-78
2021/08/13 13:50:02;;;;;;;11.30;2.63;;;31.80;1.00;;;;;;6278509;22;20394;-80
2021/08/13 13:52:29;;;;;;;4.83;2.30;;;31.50;1.00;;;;;;6276296;22;20372;-78
2021/08/13 13:54:56;;;;;;;10.87;2.57;;;30.80;1.00;;;;;;6278330;22;20398;-78
2021/08/13 13:57:23;;;;;;;10.83;3.47;;;31.40;1.00;;;;;;6278468;22;20668;-78
2021/08/13 13:59:49;;;;;;;6.83;3.00;;;32.00;1.00;;;;;;6278262;22;20885;-79
2021/08/13 14:02:16;;;;;;;5.70;3.00;;;32.10;1.00;;;;;;6278307;22;20405;-79
2021/08/13 14:04:45;;;;;;;5.40;2.80;;;31.60;1.00;;;;;;6278213;22;20398;-79
2021/08/13 14:07:13;;;;;;;5.00;2.30;;;30.80;1.00;;;;;;6276633;22;20431;-78
2021/08/13 14:09:40;;;;;;;6.60;2.47;;;30.20;1.00;;;;;;6278117;22;20405;-78
2021/08/13 14:12:07;;;;;;;6.20;2.73;;;29.90;1.00;;;;;;6277780;22;20394;-77
2021/08/13 14:14:34;;;;;;;6.10;3.07;;;29.70;1.00;;;;;;6277789;22;20402;-78
2021/08/13 14:17:01;;;;;;;6.87;3.50;;;29.10;1.00;;;;;;6278048;22;20373;-80
2021/08/13 14:19:28;;;;;;;8.17;2.57;;;29.30;1.00;;;;;;6277833;22;20430;-78
2021/08/13 14:21:55;;;;;;;10.47;3.03;;;29.30;1.00;;;;;;6275918;22;20914;-76
2021/08/13 14:24:23;;;;;;;5.80;3.00;;;28.80;1.80;;;;;;6278098;22;20905;-78
2021/08/13 14:26:50;;;;;;;6.23;2.23;;;28.50;1.00;;;;;;6277683;22;20399;-79
2021/08/13 14:29:17;;;;;;;6.00;2.67;;;28.20;2.00;;;;;;6278015;22;20377;-76
2021/08/13 14:31:43;;;;;;;8.87;3.13;;;27.90;3.30;;;;;;6277951;22;20407;-79
2021/08/13 14:34:10;;;;;;;5.77;2.33;;;27.90;4.80;;;;;;6277481;22;20905;-75
2021/08/13 14:36:37;;;;;;;7.30;3.50;;;27.80;3.60;;;;;;6277941;22;20405;-76
2021/08/13 14:39:04;;;;;;;5.63;2.67;;;27.30;5.40;;;;;;6285975;22;20448;-78
2021/08/13 14:41:32;;;;;;;5.47;2.67;;;27.00;4.50;;;;;;6277476;22;20399;-76
2021/08/13 14:43:58;;;;;;;6.40;2.60;;;27.00;7.70;;;;;;6277426;22;20945;-76
2021/08/13 14:46:25;;;;;;;6.17;2.73;;;26.80;6.90;;;;;;6277775;22;20405;-77
2021/08/13 14:48:52;;;;;;;5.20;2.43;;;26.50;8.20;;;;;;6277317;22;20399;-78
2021/08/13 14:51:19;;;;;;;5.67;2.87;;;26.10;10.60;;;;;;6277826;22;20399;-77
2021/08/13 14:53:45;;;;;;;6.73;2.53;;;26.30;9.50;;;;;;6276218;22;20422;-79
2021/08/13 14:56:12;;;;;;;5.00;2.53;;;26.40;8.90;;;;;;6277713;22;20416;-76
2021/08/13 14:58:40;;;;;;;6.67;2.80;;;26.40;8.70;;;;;;6277725;22;20395;-77
2021/08/13 15:01:07;;;;;;;9.03;3.43;;;26.60;9.90;;;;;;6277358;22;20430;-77
2021/08/13 15:03:34;;;;;;;6.53;2.50;;;26.80;9.70;;;;;;6287301;22;20417;-78
2021/08/13 15:06:01;;;;;;;5.67;2.73;;;26.90;8.00;;;;;;6277494;22;20705;-77
2021/08/13 15:08:27;;;;;;;6.17;2.67;;;26.60;9.00;;;;;;6276078;22;20405;-79
2021/08/13 15:10:54;;;;;;;7.03;3.20;;;26.60;8.20;;;;;;6277217;22;20398;-75
2021/08/13 15:13:21;;;;;;;7.03;3.13;;;27.10;8.90;;;;;;6277352;22;20377;-80
2021/08/13 15:15:49;;;;;;;7.07;3.33;;;27.20;6.30;;;;;;6277255;22;20736;-79
2021/08/13 15:18:16;;;;;;;5.90;2.70;;;27.50;4.50;;;;;;6277288;22;20430;-79
2021/08/13 15:20:43;;;;;;;6.00;3.23;;;28.00;4.40;;;;;;6277355;22;20492;-79
2021/08/13 15:23:11;;;;;;;5.40;3.00;;;28.00;4.30;;;;;;6275948;22;20494;-79
2021/08/13 15:25:38;;;;;;;7.50;2.33;;;28.00;2.50;;;;;;6277437;22;20540;-79
2021/08/13 15:28:05;;;;;;;6.60;3.13;;;28.10;4.60;;;;;;6276981;22;20412;-78
2021/08/13 15:30:32;;;;;;;7.30;2.50;;;28.20;2.40;;;;;;6287194;22;20437;-79
2021/08/13 15:33:00;;;;;;;6.83;3.70;;;27.70;4.20;;;;;;6287236;22;20703;-77
2021/08/13 15:35:27;;;;;;;5.63;2.47;;;27.70;6.80;;;;;;6277398;22;20398;-77
2021/08/13 15:37:54;;;;;;;7.57;2.60;;;27.60;4.20;;;;;;6275671;22;20428;-78
2021/08/13 15:40:21;;;;;;;6.23;3.20;;;27.10;6.70;;;;;;6277227;22;20521;-78
2021/08/13 15:42:51;;;;;;;4.30;2.10;;;27.00;6.40;;;;;;6287502;22;20882;-79
2021/08/13 15:45:18;;;;;;;5.80;2.83;;;26.40;7.10;;;;;;6276701;22;20417;-79
2021/08/13 15:47:45;;;;;;;6.97;3.43;;;26.10;8.70;;;;;;6276952;22;20445;-79
2021/08/13 15:50:13;;;;;;;6.97;2.90;;;26.00;8.70;;;;;;6277263;22;20779;-78
2021/08/13 15:52:41;;;;;;;6.67;3.10;;;25.70;9.00;;;;;;6275259;22;20885;-78
2021/08/13 15:55:09;;;;;;;7.40;4.00;;;25.50;8.40;;;;;;6276702;22;20398;-78
2021/08/13 15:57:35;;;;;;;7.20;3.07;;;25.40;8.40;;;;;;6276964;22;20422;-79
2021/08/13 16:00:03;;;;;;;5.70;3.00;;;25.40;9.40;;;;;;6276857;22;20461;-80
2021/08/13 16:02:44;;;;;;;8.43;3.10;;;25.50;8.40;;;;;;6277006;22;20437;-83
2021/08/13 16:05:14;;;;;;;6.73;3.20;;;25.60;8.50;;;;;;6276903;22;20424;-80
2021/08/13 16:07:41;;;;;;;5.67;3.43;;;25.60;8.50;;;;;;6272462;22;20403;-79
2021/08/13 16:10:08;;;;;;;6.90;3.70;;;26.00;6.10;;;;;;6274893;22;20398;-80
2021/08/13 16:12:37;;;;;;;5.80;3.17;;;26.30;5.40;;;;;;6274639;22;20399;-81
2021/08/13 16:15:05;;;;;;;9.60;4.00;;;26.50;6.40;;;;;;6285199;22;20381;-81
2021/08/13 16:17:36;;;;;;;7.73;3.30;;;26.30;4.90;;;;;;6275085;22;20906;-82
2021/08/13 16:20:04;;;;;;;7.43;3.60;;;26.60;4.70;;;;;;6285605;22;20426;-82
2021/08/13 16:22:35;;;;;;;7.50;3.67;;;26.90;4.90;;;;;;6274997;22;20468;-81
2021/08/13 17:08:23;;;;;;;7.97;3.30;;;25.00;8.10;;;;;;5912791;24;20447;-83
2021/08/13 17:11:13;;;;;;;11.67;3.77;;;24.50;9.00;;;;;;5951978;23;20419;-82
2021/08/13 17:14:16;;;;;;;;;;;;;;;;;;;;;
2021/08/13 17:16:45;;;;;;;8.50;4.10;;;24.10;8.30;;;;;;5967309;23;20909;-81
2021/08/13 17:19:24;;;;;;;;;;;;;;;;;;;;;
2021/08/13 17:22:13;;;;;;;6.80;3.77;;;23.70;12.20;;;;;;6179256;23;20464;-83
2021/08/13 17:24:46;;;;;;;9.23;4.50;;;23.50;11.20;;;;;;6132792;23;21035;-84
2021/08/13 17:27:13;;;;;;;10.17;4.83;;;23.50;15.30;;;;;;6198830;23;20486;-79
2021/08/13 17:29:40;;;;;;;10.00;4.07;;;23.30;15.40;;;;;;6253212;23;20449;-80
2021/08/13 17:32:07;;;;;;;9.77;3.50;;;23.20;15.70;;;;;;6243755;23;20898;-78
2021/08/13 17:34:34;;;;;;;10.33;4.83;;;23.10;14.50;;;;;;6254047;23;20482;-78
2021/08/13 17:37:01;;;;;;;9.03;4.20;;;22.90;16.70;;;;;;6241919;23;20896;-78
2021/08/13 17:39:28;;;;;;;8.90;3.77;;;22.90;16.20;;;;;;6262822;22;20972;-80
2021/08/13 17:41:56;;;;;;;9.10;3.57;;;22.80;17.30;;;;;;6274423;22;20434;-79
2021/08/13 17:44:23;;;;;;;9.20;3.70;;;22.70;16.20;;;;;;6274528;22;20426;-79
2021/08/13 17:46:50;;;;;;;9.10;4.17;;;22.60;14.90;;;;;;6274769;22;20481;-79
2021/08/13 17:49:17;;;;;;;7.77;3.63;;;22.60;15.40;;;;;;6285139;22;20402;-79
2021/08/13 17:51:44;;;;;;;6.73;3.13;;;22.50;14.00;;;;;;6284862;22;20473;-80
2021/08/13 17:54:11;;;;;;;9.73;4.00;;;22.50;14.00;;;;;;6273397;22;20758;-79
2021/08/13 17:56:37;;;;;;;8.30;3.00;;;22.60;16.10;;;;;;6275898;22;20406;-81
2021/08/13 17:59:06;;;;;;;8.90;4.40;;;22.60;17.40;;;;;;6276639;22;20449;-82
2021/08/13 18:01:34;;;;;;;10.60;3.27;;;22.60;16.80;;;;;;6275864;22;20509;-81
2021/08/13 18:04:01;;;;;;;9.90;4.13;;;22.50;18.10;;;;;;6286283;22;20417;-81
2021/08/13 18:06:28;;;;;;;8.00;3.83;;;22.50;17.70;;;;;;6276373;22;20473;-80
2021/08/13 18:08:55;;;;;;;10.90;3.23;;;22.40;17.40;;;;;;6284761;22;20459;-81
2021/08/13 18:11:22;;;;;;;11.80;3.80;;;22.30;18.70;;;;;;6275001;22;20501;-80
2021/08/13 18:13:49;;;;;;;9.17;3.93;;;22.30;19.30;;;;;;6286334;22;20917;-80
2021/08/13 18:16:18;;;;;;;10.30;4.10;;;22.10;17.90;;;;;;6276019;22;20445;-81
2021/08/13 18:18:46;;;;;;;8.97;4.50;;;22.00;18.60;;;;;;6276299;22;20728;-81
2021/08/13 18:21:13;;;;;;;9.30;4.13;;;21.90;17.60;;;;;;6277457;22;20430;-78
2021/08/13 18:23:41;;;;;;;8.77;3.60;;;21.80;18.90;;;;;;6286601;22;20409;-79
2021/08/13 18:26:08;;;;;;;13.63;4.43;;;21.70;19.20;;;;;;6278065;22;20437;-78
2021/08/13 18:28:35;;;;;;;8.43;3.97;;;21.50;18.90;;;;;;6287901;22;20501;-79
2021/08/13 18:31:02;;;;;;;9.93;3.40;;;21.50;20.70;;;;;;6277945;22;20489;-79
2021/08/13 18:33:31;;;;;;;12.30;4.93;;;21.40;20.70;;;;;;6277612;22;20409;-79
2021/08/13 18:35:57;;;;;;;8.73;3.67;;;21.20;23.30;;;;;;6277668;22;20407;-79
2021/08/13 18:38:24;;;;;;;11.00;3.80;;;21.00;23.80;;;;;;6275764;22;20517;-79
2021/08/13 18:40:51;;;;;;;10.20;4.40;;;20.90;23.60;;;;;;6277189;22;20422;-79
2021/08/13 18:43:18;;;;;;;6.93;3.60;;;20.70;22.00;;;;;;6277578;22;20522;-79
2021/08/13 18:45:47;;;;;;;10.00;3.47;;;20.60;24.60;;;;;;6288070;22;20406;-79
2021/08/13 18:48:13;;;;;;;6.17;3.07;;;20.40;27.30;;;;;;6287709;22;20492;-79
2021/08/13 18:50:42;;;;;;;8.67;3.83;;;20.20;26.50;;;;;;6277723;22;20492;-80
2021/08/13 18:53:09;;;;;;;8.63;3.70;;;20.00;25.40;;;;;;6275700;22;20957;-80
2021/08/13 18:55:36;;;;;;;9.40;4.17;;;20.00;28.10;;;;;;6287683;22;20730;-81
2021/08/13 18:58:03;;;;;;;8.53;3.77;;;19.70;30.20;;;;;;6277308;22;20399;-81
2021/08/13 19:00:31;;;;;;;7.93;3.70;;;19.60;29.80;;;;;;6277659;22;20434;-81
2021/08/13 19:02:58;;;;;;;8.77;4.40;;;19.40;32.10;;;;;;6277359;22;20398;-81
2021/08/13 19:05:25;;;;;;;9.47;3.50;;;19.20;35.20;;;;;;6277590;22;20438;-80
2021/08/13 19:07:53;;;;;;;8.60;4.10;;;19.10;35.30;;;;;;6286285;22;20489;-81
2021/08/13 19:10:20;;;;;;;10.10;4.80;;;19.00;37.10;;;;;;6277468;22;20407;-81
2021/08/13 19:12:47;;;;;;;9.07;3.50;;;18.80;40.50;;;;;;6277525;22;20765;-81
2021/08/13 19:15:14;;;;;;;18.43;4.93;;;18.70;43.10;;;;;;6277399;22;20413;-81
2021/08/13 19:17:41;;;;;;;13.03;4.53;;;18.50;44.50;;;;;;6277454;22;20391;-81
2021/08/13 19:20:10;;;;;;;7.70;3.30;;;18.30;44.10;;;;;;6277294;22;20437;-81
2021/08/13 19:22:36;;;;;;;9.93;4.00;;;18.20;44.20;;;;;;6285981;22;20724;-80
2021/08/13 19:25:06;;;;;;;9.03;3.90;;;18.20;41.80;;;;;;6276954;22;20441;-80
2021/08/13 19:27:33;;;;;;;10.33;4.83;;;18.00;43.20;;;;;;6276902;22;20402;-80
2021/08/13 19:30:00;;;;;;;11.70;4.17;;;17.90;45.40;;;;;;6277359;22;20437;-80
2021/08/13 19:32:27;;;;;;;8.17;4.60;;;17.80;47.00;;;;;;6277257;22;20402;-82
2021/08/13 19:34:54;;;;;;;11.20;4.60;;;17.70;49.50;;;;;;6277115;22;20434;-81
2021/08/13 19:37:21;;;;;;;10.83;5.00;;;17.60;51.00;;;;;;6286003;22;20402;-80
2021/08/13 19:39:48;;;;;;;10.33;4.40;;;17.50;50.90;;;;;;6277127;22;20446;-80
2021/08/13 19:42:16;;;;;;;11.40;5.93;;;17.40;50.80;;;;;;6287364;22;20449;-81
2021/08/13 19:44:43;;;;;;;10.23;6.53;;;17.40;52.70;;;;;;6287084;22;20501;-80
2021/08/13 19:47:59;;;;;;;12.17;5.90;;;17.20;56.10;;;;;;6277062;22;20406;-83
2021/08/13 19:50:26;;;;;;;15.93;5.90;;;17.20;57.40;;;;;;6104111;23;20411;-82
2021/08/13 19:52:56;;;;;;;17.00;6.43;;;17.20;56.00;;;;;;6103821;23;20416;-86
2021/08/13 19:55:28;;;;;;;16.63;6.30;;;17.10;56.50;;;;;;6128289;22;20443;-92
2021/08/13 19:58:02;;;;;;;12.70;6.50;;;17.00;57.10;;;;;;6287320;22;20437;-90
2021/08/13 20:00:48;;;;;;;12.83;5.67;;;17.00;59.10;;;;;;6286759;22;20463;-89
2021/08/13 20:03:22;;;;;;;12.30;7.47;;;17.00;58.20;;;;;;6287269;22;20497;-91
2021/08/13 20:05:49;;;;;;;10.80;6.20;;;16.90;59.00;;;;;;6277048;22;20403;-86
2021/08/13 20:08:16;;;;;;;14.93;7.00;;;16.80;58.90;;;;;;6286030;22;20402;-83
2021/08/13 20:10:53;;;;;;;10.73;6.17;;;16.70;60.40;;;;;;6276859;22;20480;-88
2021/08/13 20:13:37;;;;;;;25.33;8.73;;;16.70;61.70;;;;;;6286623;22;20444;-90
2021/08/13 20:16:11;;;;;;;11.87;10.63;;;16.60;64.90;;;;;;6287237;22;20409;-90
2021/08/13 20:18:45;;;;;;;12.07;11.07;;;16.70;70.00;;;;;;6276556;22;20405;-91
2021/08/13 20:21:20;;;;;;;17.83;13.17;;;16.60;70.60;;;;;;6287130;22;20809;-89
2021/08/13 20:24:02;;;;;;;27.33;15.40;;;16.50;73.30;;;;;;6285967;22;20410;-91
2021/08/13 20:26:44;;;;;;;22.60;18.17;;;16.40;75.70;;;;;;6276935;22;20456;-92
2021/08/13 20:32:18;;;;;;;19.10;17.50;;;16.30;78.60;;;;;;6274283;22;20426;-92
2021/08/13 20:34:53;;;;;;;22.73;21.23;;;16.10;80.00;;;;;;6287008;22;20472;-91
2021/08/13 20:37:25;;;;;;;26.60;24.90;;;16.00;82.10;;;;;;6286209;22;20402;-92
2021/08/13 20:40:00;;;;;;;30.80;28.93;;;16.00;83.30;;;;;;6286761;22;20525;-91
2021/08/13 20:42:30;;;;;;;32.80;31.00;;;16.00;85.50;;;;;;6286446;22;20917;-92
2021/08/13 20:45:08;;;;;;;38.10;36.20;;;15.90;85.90;;;;;;6286487;22;20410;-89
2021/08/13 20:47:46;;;;;;;;;;;;;;;;;;;;;
2021/08/13 20:50:18;;;;;;;48.07;45.27;;;15.80;88.40;;;;;;6275724;22;20433;-91
2021/08/13 20:52:55;;;;;;;40.47;36.93;;;15.80;90.00;;;;;;6275387;22;20404;-90
2021/08/13 20:55:25;;;;;;;33.17;31.37;;;15.80;88.60;;;;;;6275837;22;20712;-90
2021/08/13 20:57:56;;;;;;;27.23;25.50;;;15.70;89.00;;;;;;6286623;22;20750;-91
2021/08/13 21:00:25;;;;;;;31.17;29.27;;;15.50;88.60;;;;;;6286552;22;20406;-92
2021/08/13 21:02:55;;;;;;;33.20;31.00;;;15.50;89.70;;;;;;6286820;22;20756;-91
2021/08/13 21:05:23;;;;;;;46.03;43.83;;;15.30;89.70;;;;;;6286755;22;20907;-92
2021/08/13 21:07:58;;;;;;;34.97;32.90;;;15.40;91.30;;;;;;6285490;22;20426;-91
2021/08/13 21:10:42;;;;;;;49.40;47.00;;;15.30;91.20;;;;;;6286171;22;20416;-90
2021/08/13 21:16:36;;;;;;;48.47;45.93;;;15.20;92.80;;;;;;6286922;22;20405;-91
2021/08/13 21:19:11;;;;;;;55.13;52.40;;;15.10;93.10;;;;;;6286852;22;20406;-90
2021/08/13 21:21:45;;;;;;;58.77;55.87;;;15.10;93.30;;;;;;6286608;22;20424;-88
2021/08/13 21:24:13;;;;;;;71.77;68.27;;;15.00;94.50;;;;;;6285518;22;20414;-87
2021/08/13 21:26:43;;;;;;;66.17;63.03;;;15.10;96.40;;;;;;6276471;22;20399;-90
2021/08/13 21:29:36;;;;;;;51.57;49.17;;;14.90;95.90;;;;;;6286519;22;20908;-90
2021/08/13 21:32:35;;;;;;;;;;;;;;;;;;;;;
2021/08/13 21:35:19;;;;;;;58.40;55.70;;;14.90;96.30;;;;;;6288928;22;20441;-92
2021/08/13 21:38:04;;;;;;;68.40;65.20;;;14.80;97.30;;;;;;6287225;22;20409;-90
2021/08/13 21:40:40;;;;;;;83.60;80.00;;;14.90;97.30;;;;;;6288402;22;21288;-91
2021/08/13 21:43:25;;;;;;;90.40;85.63;;;14.90;98.00;;;;;;6287921;22;20474;-90
2021/08/13 21:46:10;;;;;;;88.43;84.33;;;14.90;98.30;;;;;;6288316;22;20996;-90
2021/08/13 21:48:46;;;;;;;93.40;89.00;;;14.90;98.10;;;;;;6277294;22;20406;-89
2021/08/13 21:51:21;;;;;;;96.93;92.60;;;14.80;98.40;;;;;;6288043;22;20436;-90
2021/08/13 21:53:53;;;;;;;103.17;98.27;;;14.80;98.40;;;;;;6287258;22;20792;-92
2021/08/13 21:56:26;;;;;;;100.00;95.33;;;14.80;99.10;;;;;;6288048;22;20919;-90
2021/08/13 21:58:55;;;;;;;94.27;90.17;;;14.70;98.50;;;;;;6288585;22;20406;-91